Containerships 6 — DABH — position and weather

sailwx.info

Track history (hours):
 
Tides and Currents Weather Stations Pressure Air Temp Water Temp Dewpoint Dewpoint Depression Visibility Wind Speed Wind Dir Waves Ship Positions

Containerships 6

Last reported at 2016-Aug-26 22:31 UTC. Time now 2016-Aug-27 04:43 UTC.
Position N 55°52' E 006°59'.

Length 155 m; beam 21.8 m; draft 8.9 m.

Type: Ship (hazmat cat A). MMSI: 211315096.

Date/timePositionNaut miles runAvg speedWind from/ knotsBaromVisibWave heightAir tempDewpointWater temp
2016-Aug-26 22:31N 55°52' E 006°59'1717.6
2016-Aug-26 21:33N 55°38' E 006°43'1817.6
2016-Aug-26 20:33N 55°23' E 006°26'5517.7
2016-Aug-26 17:28N 54°35' E 005°41'1617.4
2016-Aug-26 16:33N 54°21' E 005°26'1717.4
2016-Aug-26 15:33N 54°07' E 005°10'1817.5
2016-Aug-26 14:32N 53°50' E 004°59'1917.6
2016-Aug-26 13:29N 53°33' E 004°48'1818.0
2016-Aug-26 12:29N 53°17' E 004°35'1718.5
2016-Aug-26 11:33N 53°01' E 004°22'1818.3
2016-Aug-26 10:33N 52°45' E 004°09'1818.2
2016-Aug-26 09:33N 52°29' E 003°55'1817.8
2016-Aug-26 08:33N 52°11' E 003°54'1313.3
2016-Aug-26 07:34N 51°59' E 004°04'1211.8
2016-Aug-26 06:33N 51°54' E 004°22'2 1.2
2016-Aug-26 04:31N 51°53' E 004°25'0 0.0
2016-Aug-26 03:32N 51°53' E 004°25'0 0.0
2016-Aug-26 02:31N 51°53' E 004°25'0 0.0
2016-Aug-26 01:32N 51°53' E 004°25'0 0.0
2016-Aug-26 00:32N 51°53' E 004°25'0 0.0
2016-Aug-25 23:32N 51°53' E 004°25'0 0.0
2016-Aug-25 22:31N 51°53' E 004°25'0 0.0
2016-Aug-25 21:31N 51°53' E 004°25'0 0.0
2016-Aug-25 20:31N 51°53' E 004°25'0 0.0
2016-Aug-25 19:31N 51°53' E 004°25'0 0.0
2016-Aug-25 18:31N 51°53' E 004°25'0 0.0
2016-Aug-25 17:31N 51°53' E 004°25'0 0.0
2016-Aug-25 16:31N 51°53' E 004°25'0 0.0
2016-Aug-25 15:31N 51°53' E 004°25'0 0.0
2016-Aug-25 14:31N 51°53' E 004°25'0 0.0
2016-Aug-25 13:31N 51°53' E 004°25'1 0.8
2016-Aug-25 12:33N 51°53' E 004°24'10 9.9
2016-Aug-25 11:34N 51°57' E 004°10'1414.1
2016-Aug-25 10:33N 52°01' E 003°47'1918.7
2016-Aug-25 09:34N 52°11' E 003°22'1918.9
2016-Aug-25 08:33N 52°22' E 002°57'1918.7
2016-Aug-25 07:33N 52°33' E 002°32'2218.3
2016-Aug-25 06:20N 52°45' E 002°01'3117.4
2016-Aug-25 04:33N 53°06' E 001°24'1818.2
2016-Aug-25 03:33N 53°22' E 001°07'1918.0
2016-Aug-25 02:29N 53°38' E 000°51'2018.3
2016-Aug-25 01:23N 53°54' E 000°29'1518.7
2016-Aug-25 00:34N 54°05' E 000°11'1919.2
2016-Aug-24 23:34N 54°19' W 000°11'3918.7
2016-Aug-24 21:30N 54°40' W 001°07'0 0.0
2016-Aug-24 04:11N 54°39' W 001°08'914.7
2016-Aug-24 03:33N 54°44' W 000°54'1716.7
2016-Aug-24 02:31N 54°52' W 000°27'1616.3
2016-Aug-24 01:34N 54°59' W 000°03'1816.3
2016-Aug-24 00:28N 55°07' E 000°25'3616.3
2016-Aug-23 22:15N 55°23' E 001°21'1116.3
2016-Aug-23 21:34N 55°28' E 001°39'1616.2
2016-Aug-23 20:33N 55°36' E 002°05'1716.3
2016-Aug-23 19:29N 55°44' E 002°32'29916.7
2016-Aug-23 01:34N 57°45' E 010°51'1817.7
2016-Aug-23 00:34N 57°33' E 011°16'1817.6
2016-Aug-22 23:34N 57°18' E 011°33'1817.7
2016-Aug-22 22:33N 57°01' E 011°44'1717.1
2016-Aug-22 21:33N 56°45' E 011°53'8916.5
2016-Aug-22 16:09N 55°21' E 011°02'1017.1
2016-Aug-22 15:34N 55°11' E 011°04'1716.9
2016-Aug-22 14:34N 54°55' E 010°54'1515.0
2016-Aug-22 13:34N 54°40' E 010°59'1818.0
2016-Aug-22 12:34N 54°32' E 011°27'1717.4
2016-Aug-22 11:34N 54°26' E 011°55'1414.3
2016-Aug-22 10:34N 54°34' E 012°15'6017.1
2016-Aug-22 07:04N 55°01' E 013°48'917.6
2016-Aug-22 06:33N 55°05' E 014°02'1717.5
2016-Aug-22 05:34N 55°17' E 014°24'1616.3
2016-Aug-22 04:34N 55°26' E 014°48'1817.6
2016-Aug-22 03:34N 55°27' E 015°19'1717.2
2016-Aug-22 02:34N 55°28' E 015°49'1717.1
2016-Aug-22 01:33N 55°29' E 016°19'5217.3
2016-Aug-21 22:32N 55°32' E 017°51'1917.3
2016-Aug-21 21:25N 55°34' E 018°25'1517.6
2016-Aug-21 20:33N 55°36' E 018°52'65 4.0
2016-Aug-21 04:10N 55°56' E 020°42'21317.6
2016-Aug-20 16:04N 59°24' E 022°16'918.6
2016-Aug-20 15:34N 59°29' E 022°31'1918.8
2016-Aug-20 14:33N 59°36' E 023°06'1919.0
2016-Aug-20 13:33N 59°41' E 023°42'1919.1
2016-Aug-20 12:33N 59°47' E 024°18'1918.7
2016-Aug-20 11:34N 59°54' E 024°52'21 2.9
2016-Aug-20 04:26N 60°13' E 025°12'0 0.0
2016-Aug-20 03:17N 60°13' E 025°12'0 0.0
2016-Aug-19 08:22N 60°13' E 025°12'13 3.2
2016-Aug-19 04:09N 59°60' E 025°20'915.2
2016-Aug-19 03:34N 59°57' E 025°37'1815.3
2016-Aug-19 02:24N 59°60' E 026°12'1315.4
2016-Aug-19 01:34N 60°02' E 026°38'1515.1
2016-Aug-19 00:34N 60°01' E 027°08'1615.5
2016-Aug-18 23:30N 60°09' E 027°37'1414.4
2016-Aug-18 22:31N 60°10' E 028°05'1415.1
2016-Aug-18 21:34N 60°04' E 028°31'1515.2
2016-Aug-18 20:33N 60°02' E 029°02'1010.1
2016-Aug-18 19:33N 60°02' E 029°22'8 7.5
2016-Aug-18 18:33N 60°00' E 029°37'3 2.8
2016-Aug-18 17:26N 60°00' E 029°43'0 0.0
2016-Aug-18 15:17N 60°00' E 029°43'0 0.0
2016-Aug-18 13:23N 60°00' E 029°43'0 0.0
2016-Aug-18 09:26N 60°00' E 029°43'0 0.0
2016-Aug-18 08:29N 60°00' E 029°43'0 0.0
2016-Aug-18 07:07N 60°00' E 029°43'1 0.5
2016-Aug-18 04:32N 59°59' E 029°43'1211.2
2016-Aug-18 03:27N 60°02' E 029°19'1112.7
2016-Aug-18 02:33N 60°02' E 028°56'1514.7
2016-Aug-18 01:33N 60°03' E 028°27'1514.5
2016-Aug-18 00:33N 60°09' E 028°00'1413.6
2016-Aug-17 23:33N 60°07' E 027°33'1514.7
2016-Aug-17 22:33N 59°59' E 027°08'1414.0
2016-Aug-17 21:33N 59°59' E 026°40'84 4.4
2016-Aug-17 02:19N 59°39' E 023°58'1418.1
2016-Aug-17 01:33N 59°35' E 023°32'1917.7
2016-Aug-17 00:30N 59°29' E 022°58'  
Track history (hours):
 
Tides and Currents Weather Stations Pressure Air Temp Water Temp Dewpoint Dewpoint Depression Visibility Wind Speed Wind Dir Waves Ship Positions

Containerships 6

Last reported at 2016-Aug-26 22:31 UTC. Time now 2016-Aug-27 04:43 UTC.
Position N 55°52' E 006°59'.

Length 155 m; beam 21.8 m; draft 8.9 m.

Type: Ship (hazmat cat A). MMSI: 211315096.

Date/timePositionNaut miles runAvg speedWind from/ knotsBaromVisibWave heightAir tempDewpointWater temp
2016-Aug-26 22:31N 55°52' E 006°59'1717.6
2016-Aug-26 21:33N 55°38' E 006°43'1817.6
2016-Aug-26 20:33N 55°23' E 006°26'5517.7
2016-Aug-26 17:28N 54°35' E 005°41'1617.4
2016-Aug-26 16:33N 54°21' E 005°26'1717.4
2016-Aug-26 15:33N 54°07' E 005°10'1817.5
2016-Aug-26 14:32N 53°50' E 004°59'1917.6
2016-Aug-26 13:29N 53°33' E 004°48'1818.0
2016-Aug-26 12:29N 53°17' E 004°35'1718.5
2016-Aug-26 11:33N 53°01' E 004°22'1818.3
2016-Aug-26 10:33N 52°45' E 004°09'1818.2
2016-Aug-26 09:33N 52°29' E 003°55'1817.8
2016-Aug-26 08:33N 52°11' E 003°54'1313.3
2016-Aug-26 07:34N 51°59' E 004°04'1211.8
2016-Aug-26 06:33N 51°54' E 004°22'2 1.2
2016-Aug-26 04:31N 51°53' E 004°25'0 0.0
2016-Aug-26 03:32N 51°53' E 004°25'0 0.0
2016-Aug-26 02:31N 51°53' E 004°25'0 0.0
2016-Aug-26 01:32N 51°53' E 004°25'0 0.0
2016-Aug-26 00:32N 51°53' E 004°25'0 0.0
2016-Aug-25 23:32N 51°53' E 004°25'0 0.0
2016-Aug-25 22:31N 51°53' E 004°25'0 0.0
2016-Aug-25 21:31N 51°53' E 004°25'0 0.0
2016-Aug-25 20:31N 51°53' E 004°25'0 0.0
2016-Aug-25 19:31N 51°53' E 004°25'0 0.0
2016-Aug-25 18:31N 51°53' E 004°25'0 0.0
2016-Aug-25 17:31N 51°53' E 004°25'0 0.0
2016-Aug-25 16:31N 51°53' E 004°25'0 0.0
2016-Aug-25 15:31N 51°53' E 004°25'0 0.0
2016-Aug-25 14:31N 51°53' E 004°25'0 0.0
2016-Aug-25 13:31N 51°53' E 004°25'1 0.8
2016-Aug-25 12:33N 51°53' E 004°24'10 9.9
2016-Aug-25 11:34N 51°57' E 004°10'1414.1
2016-Aug-25 10:33N 52°01' E 003°47'1918.7
2016-Aug-25 09:34N 52°11' E 003°22'1918.9
2016-Aug-25 08:33N 52°22' E 002°57'1918.7
2016-Aug-25 07:33N 52°33' E 002°32'2218.3
2016-Aug-25 06:20N 52°45' E 002°01'3117.4
2016-Aug-25 04:33N 53°06' E 001°24'1818.2
2016-Aug-25 03:33N 53°22' E 001°07'1918.0
2016-Aug-25 02:29N 53°38' E 000°51'2018.3
2016-Aug-25 01:23N 53°54' E 000°29'1518.7
2016-Aug-25 00:34N 54°05' E 000°11'1919.2
2016-Aug-24 23:34N 54°19' W 000°11'3918.7
2016-Aug-24 21:30N 54°40' W 001°07'0 0.0
2016-Aug-24 04:11N 54°39' W 001°08'914.7
2016-Aug-24 03:33N 54°44' W 000°54'1716.7
2016-Aug-24 02:31N 54°52' W 000°27'1616.3
2016-Aug-24 01:34N 54°59' W 000°03'1816.3
2016-Aug-24 00:28N 55°07' E 000°25'3616.3
2016-Aug-23 22:15N 55°23' E 001°21'1116.3
2016-Aug-23 21:34N 55°28' E 001°39'1616.2
2016-Aug-23 20:33N 55°36' E 002°05'1716.3
2016-Aug-23 19:29N 55°44' E 002°32'29916.7
2016-Aug-23 01:34N 57°45' E 010°51'1817.7
2016-Aug-23 00:34N 57°33' E 011°16'1817.6
2016-Aug-22 23:34N 57°18' E 011°33'1817.7
2016-Aug-22 22:33N 57°01' E 011°44'1717.1
2016-Aug-22 21:33N 56°45' E 011°53'8916.5
2016-Aug-22 16:09N 55°21' E 011°02'1017.1
2016-Aug-22 15:34N 55°11' E 011°04'1716.9
2016-Aug-22 14:34N 54°55' E 010°54'1515.0
2016-Aug-22 13:34N 54°40' E 010°59'1818.0
2016-Aug-22 12:34N 54°32' E 011°27'1717.4
2016-Aug-22 11:34N 54°26' E 011°55'1414.3
2016-Aug-22 10:34N 54°34' E 012°15'6017.1
2016-Aug-22 07:04N 55°01' E 013°48'917.6
2016-Aug-22 06:33N 55°05' E 014°02'1717.5
2016-Aug-22 05:34N 55°17' E 014°24'1616.3
2016-Aug-22 04:34N 55°26' E 014°48'1817.6
2016-Aug-22 03:34N 55°27' E 015°19'1717.2
2016-Aug-22 02:34N 55°28' E 015°49'1717.1
2016-Aug-22 01:33N 55°29' E 016°19'5217.3
2016-Aug-21 22:32N 55°32' E 017°51'1917.3
2016-Aug-21 21:25N 55°34' E 018°25'1517.6
2016-Aug-21 20:33N 55°36' E 018°52'65 4.0
2016-Aug-21 04:10N 55°56' E 020°42'21317.6
2016-Aug-20 16:04N 59°24' E 022°16'918.6
2016-Aug-20 15:34N 59°29' E 022°31'1918.8
2016-Aug-20 14:33N 59°36' E 023°06'1919.0
2016-Aug-20 13:33N 59°41' E 023°42'1919.1
2016-Aug-20 12:33N 59°47' E 024°18'1918.7
2016-Aug-20 11:34N 59°54' E 024°52'21 2.9
2016-Aug-20 04:26N 60°13' E 025°12'0 0.0
2016-Aug-20 03:17N 60°13' E 025°12'0 0.0
2016-Aug-19 08:22N 60°13' E 025°12'13 3.2
2016-Aug-19 04:09N 59°60' E 025°20'915.2
2016-Aug-19 03:34N 59°57' E 025°37'1815.3
2016-Aug-19 02:24N 59°60' E 026°12'1315.4
2016-Aug-19 01:34N 60°02' E 026°38'1515.1
2016-Aug-19 00:34N 60°01' E 027°08'1615.5
2016-Aug-18 23:30N 60°09' E 027°37'1414.4
2016-Aug-18 22:31N 60°10' E 028°05'1415.1
2016-Aug-18 21:34N 60°04' E 028°31'1515.2
2016-Aug-18 20:33N 60°02' E 029°02'1010.1
2016-Aug-18 19:33N 60°02' E 029°22'8 7.5
2016-Aug-18 18:33N 60°00' E 029°37'3 2.8
2016-Aug-18 17:26N 60°00' E 029°43'0 0.0
2016-Aug-18 15:17N 60°00' E 029°43'0 0.0
2016-Aug-18 13:23N 60°00' E 029°43'0 0.0
2016-Aug-18 09:26N 60°00' E 029°43'0 0.0
2016-Aug-18 08:29N 60°00' E 029°43'0 0.0
2016-Aug-18 07:07N 60°00' E 029°43'1 0.5
2016-Aug-18 04:32N 59°59' E 029°43'1211.2
2016-Aug-18 03:27N 60°02' E 029°19'1112.7
2016-Aug-18 02:33N 60°02' E 028°56'1514.7
2016-Aug-18 01:33N 60°03' E 028°27'1514.5
2016-Aug-18 00:33N 60°09' E 028°00'1413.6
2016-Aug-17 23:33N 60°07' E 027°33'1514.7
2016-Aug-17 22:33N 59°59' E 027°08'1414.0
2016-Aug-17 21:33N 59°59' E 026°40'84 4.4
2016-Aug-17 02:19N 59°39' E 023°58'1418.1
2016-Aug-17 01:33N 59°35' E 023°32'1917.7
2016-Aug-17 00:30N 59°29' E 022°58'  

Dump ship's entire track history